sensor_id;sensor_type;location;lat;lon;timestamp;P1;durP1;ratioP1;P2;durP2;ratioP2
76589;SDS011;65471;55.908;37.880;2023-07-30T00:02:17;60.08;;;25.02;;
76589;SDS011;65471;55.908;37.880;2023-07-30T00:04:45;52.77;;;24.53;;
76589;SDS011;65471;55.908;37.880;2023-07-30T00:07:12;60.22;;;26.02;;
76589;SDS011;65471;55.908;37.880;2023-07-30T00:09:40;77.80;;;27.10;;
76589;SDS011;65471;55.908;37.880;2023-07-30T00:12:07;66.38;;;26.05;;
76589;SDS011;65471;55.908;37.880;2023-07-30T00:14:36;55.65;;;25.98;;
76589;SDS011;65471;55.908;37.880;2023-07-30T00:17:03;52.05;;;25.25;;
76589;SDS011;65471;55.908;37.880;2023-07-30T00:19:30;50.83;;;26.40;;
76589;SDS011;65471;55.908;37.880;2023-07-30T00:21:57;62.60;;;27.30;;
76589;SDS011;65471;55.908;37.880;2023-07-30T00:24:24;66.95;;;27.73;;
76589;SDS011;65471;55.908;37.880;2023-07-30T00:26:51;54.33;;;26.63;;
76589;SDS011;65471;55.908;37.880;2023-07-30T00:29:18;62.15;;;25.92;;
76589;SDS011;65471;55.908;37.880;2023-07-30T00:31:46;58.15;;;25.88;;
76589;SDS011;65471;55.908;37.880;2023-07-30T00:34:13;49.42;;;24.13;;
76589;SDS011;65471;55.908;37.880;2023-07-30T00:36:40;53.05;;;24.08;;
76589;SDS011;65471;55.908;37.880;2023-07-30T00:39:06;52.78;;;21.95;;
76589;SDS011;65471;55.908;37.880;2023-07-30T00:41:33;37.28;;;21.35;;
76589;SDS011;65471;55.908;37.880;2023-07-30T00:44:01;43.25;;;18.40;;
76589;SDS011;65471;55.908;37.880;2023-07-30T00:46:28;38.33;;;18.85;;
76589;SDS011;65471;55.908;37.880;2023-07-30T00:48:55;32.38;;;18.90;;
76589;SDS011;65471;55.908;37.880;2023-07-30T00:51:22;35.08;;;15.68;;
76589;SDS011;65471;55.908;37.880;2023-07-30T00:53:50;30.73;;;15.32;;
76589;SDS011;65471;55.908;37.880;2023-07-30T00:56:17;37.78;;;15.10;;
76589;SDS011;65471;55.908;37.880;2023-07-30T00:58:44;30.90;;;14.32;;
76589;SDS011;65471;55.908;37.880;2023-07-30T01:01:15;31.33;;;14.38;;
76589;SDS011;65471;55.908;37.880;2023-07-30T01:03:42;33.17;;;14.55;;
76589;SDS011;65471;55.908;37.880;2023-07-30T01:06:09;28.20;;;13.55;;
76589;SDS011;65471;55.908;37.880;2023-07-30T01:08:36;34.00;;;14.55;;
76589;SDS011;65471;55.908;37.880;2023-07-30T01:11:03;30.33;;;12.98;;
76589;SDS011;65471;55.908;37.880;2023-07-30T01:13:32;25.67;;;13.15;;
76589;SDS011;65471;55.908;37.880;2023-07-30T01:16:00;47.97;;;14.07;;
76589;SDS011;65471;55.908;37.880;2023-07-30T01:18:27;20.73;;;14.07;;
76589;SDS011;65471;55.908;37.880;2023-07-30T01:20:57;29.23;;;13.73;;
76589;SDS011;65471;55.908;37.880;2023-07-30T01:23:25;44.63;;;13.57;;
76589;SDS011;65471;55.908;37.880;2023-07-30T01:25:57;52.83;;;14.60;;
76589;SDS011;65471;55.908;37.880;2023-07-30T01:28:29;33.88;;;15.15;;
76589;SDS011;65471;55.908;37.880;2023-07-30T01:31:04;39.35;;;15.35;;
76589;SDS011;65471;55.908;37.880;2023-07-30T01:33:33;24.67;;;13.68;;
76589;SDS011;65471;55.908;37.880;2023-07-30T01:36:00;34.50;;;15.75;;
76589;SDS011;65471;55.908;37.880;2023-07-30T01:38:28;33.85;;;13.23;;
76589;SDS011;65471;55.908;37.880;2023-07-30T01:40:56;47.42;;;14.13;;
76589;SDS011;65471;55.908;37.880;2023-07-30T01:43:23;27.60;;;13.05;;
76589;SDS011;65471;55.908;37.880;2023-07-30T01:45:50;25.30;;;13.57;;
76589;SDS011;65471;55.908;37.880;2023-07-30T01:48:17;28.85;;;12.93;;
76589;SDS011;65471;55.908;37.880;2023-07-30T01:50:44;38.35;;;13.75;;
76589;SDS011;65471;55.908;37.880;2023-07-30T01:53:13;24.85;;;12.63;;
76589;SDS011;65471;55.908;37.880;2023-07-30T01:55:40;30.67;;;12.73;;
76589;SDS011;65471;55.908;37.880;2023-07-30T01:58:10;28.75;;;12.88;;
76589;SDS011;65471;55.908;37.880;2023-07-30T02:00:37;23.75;;;12.75;;
76589;SDS011;65471;55.908;37.880;2023-07-30T02:03:04;39.45;;;13.02;;
76589;SDS011;65471;55.908;37.880;2023-07-30T02:05:31;25.95;;;13.73;;
76589;SDS011;65471;55.908;37.880;2023-07-30T02:07:58;27.13;;;13.18;;
76589;SDS011;65471;55.908;37.880;2023-07-30T02:10:26;29.98;;;13.00;;
76589;SDS011;65471;55.908;37.880;2023-07-30T02:12:53;28.08;;;13.77;;
76589;SDS011;65471;55.908;37.880;2023-07-30T02:15:20;25.48;;;13.90;;
76589;SDS011;65471;55.908;37.880;2023-07-30T02:17:47;42.35;;;16.88;;
76589;SDS011;65471;55.908;37.880;2023-07-30T02:20:14;33.72;;;15.73;;
76589;SDS011;65471;55.908;37.880;2023-07-30T02:22:41;40.80;;;15.98;;
76589;SDS011;65471;55.908;37.880;2023-07-30T02:25:08;42.53;;;16.45;;
76589;SDS011;65471;55.908;37.880;2023-07-30T02:27:35;40.75;;;16.80;;
76589;SDS011;65471;55.908;37.880;2023-07-30T02:30:02;30.98;;;16.58;;
76589;SDS011;65471;55.908;37.880;2023-07-30T02:32:30;43.10;;;17.23;;
76589;SDS011;65471;55.908;37.880;2023-07-30T02:34:57;43.47;;;16.55;;
76589;SDS011;65471;55.908;37.880;2023-07-30T02:37:24;37.88;;;16.38;;
76589;SDS011;65471;55.908;37.880;2023-07-30T02:39:51;36.13;;;16.33;;
76589;SDS011;65471;55.908;37.880;2023-07-30T02:42:18;35.22;;;17.55;;
76589;SDS011;65471;55.908;37.880;2023-07-30T02:44:45;40.53;;;17.52;;
76589;SDS011;65471;55.908;37.880;2023-07-30T02:47:11;43.90;;;17.33;;
76589;SDS011;65471;55.908;37.880;2023-07-30T02:49:38;40.80;;;15.93;;
76589;SDS011;65471;55.908;37.880;2023-07-30T02:52:05;53.40;;;18.10;;
76589;SDS011;65471;55.908;37.880;2023-07-30T02:54:33;40.25;;;18.33;;
76589;SDS011;65471;55.908;37.880;2023-07-30T02:57:00;32.20;;;17.80;;
76589;SDS011;65471;55.908;37.880;2023-07-30T02:59:27;49.92;;;18.40;;
76589;SDS011;65471;55.908;37.880;2023-07-30T03:01:54;32.13;;;17.42;;
76589;SDS011;65471;55.908;37.880;2023-07-30T03:04:21;44.60;;;17.50;;
76589;SDS011;65471;55.908;37.880;2023-07-30T03:06:48;39.65;;;18.55;;
76589;SDS011;65471;55.908;37.880;2023-07-30T03:09:15;42.22;;;17.63;;
76589;SDS011;65471;55.908;37.880;2023-07-30T03:11:42;46.00;;;18.20;;
76589;SDS011;65471;55.908;37.880;2023-07-30T03:14:09;47.72;;;18.95;;
76589;SDS011;65471;55.908;37.880;2023-07-30T03:16:36;53.75;;;18.75;;
76589;SDS011;65471;55.908;37.880;2023-07-30T03:19:03;40.08;;;17.50;;
76589;SDS011;65471;55.908;37.880;2023-07-30T03:21:30;47.97;;;19.67;;
76589;SDS011;65471;55.908;37.880;2023-07-30T03:23:57;43.17;;;20.40;;
76589;SDS011;65471;55.908;37.880;2023-07-30T03:26:24;40.08;;;18.63;;
76589;SDS011;65471;55.908;37.880;2023-07-30T03:28:50;39.85;;;17.75;;
76589;SDS011;65471;55.908;37.880;2023-07-30T03:31:18;40.15;;;18.98;;
76589;SDS011;65471;55.908;37.880;2023-07-30T03:33:45;34.15;;;17.77;;
76589;SDS011;65471;55.908;37.880;2023-07-30T03:36:12;30.85;;;17.73;;
76589;SDS011;65471;55.908;37.880;2023-07-30T03:38:40;29.92;;;16.42;;
76589;SDS011;65471;55.908;37.880;2023-07-30T03:41:08;29.92;;;16.80;;
76589;SDS011;65471;55.908;37.880;2023-07-30T03:43:39;43.17;;;17.30;;
76589;SDS011;65471;55.908;37.880;2023-07-30T03:46:06;52.10;;;16.48;;
76589;SDS011;65471;55.908;37.880;2023-07-30T03:48:33;32.78;;;17.33;;
76589;SDS011;65471;55.908;37.880;2023-07-30T03:51:00;33.00;;;16.13;;
76589;SDS011;65471;55.908;37.880;2023-07-30T03:53:33;27.27;;;15.52;;
76589;SDS011;65471;55.908;37.880;2023-07-30T03:56:01;41.45;;;16.70;;
76589;SDS011;65471;55.908;37.880;2023-07-30T03:58:28;35.45;;;16.70;;
76589;SDS011;65471;55.908;37.880;2023-07-30T04:00:57;35.00;;;15.88;;
76589;SDS011;65471;55.908;37.880;2023-07-30T04:03:24;36.35;;;16.23;;
76589;SDS011;65471;55.908;37.880;2023-07-30T04:05:51;41.35;;;16.05;;
76589;SDS011;65471;55.908;37.880;2023-07-30T04:08:18;39.25;;;15.98;;
76589;SDS011;65471;55.908;37.880;2023-07-30T04:10:45;38.40;;;15.75;;
76589;SDS011;65471;55.908;37.880;2023-07-30T04:13:12;56.70;;;15.93;;
76589;SDS011;65471;55.908;37.880;2023-07-30T04:15:38;35.63;;;16.27;;
76589;SDS011;65471;55.908;37.880;2023-07-30T04:18:05;36.85;;;15.95;;
76589;SDS011;65471;55.908;37.880;2023-07-30T04:20:32;34.85;;;15.45;;
76589;SDS011;65471;55.908;37.880;2023-07-30T04:22:59;27.80;;;15.13;;
76589;SDS011;65471;55.908;37.880;2023-07-30T04:25:26;29.35;;;14.00;;
76589;SDS011;65471;55.908;37.880;2023-07-30T04:27:53;25.92;;;15.75;;
76589;SDS011;65471;55.908;37.880;2023-07-30T04:30:20;37.95;;;15.02;;
76589;SDS011;65471;55.908;37.880;2023-07-30T04:32:47;26.58;;;15.20;;
76589;SDS011;65471;55.908;37.880;2023-07-30T04:35:14;35.03;;;15.07;;
76589;SDS011;65471;55.908;37.880;2023-07-30T04:37:41;26.75;;;13.55;;
76589;SDS011;65471;55.908;37.880;2023-07-30T04:40:08;28.17;;;13.85;;
76589;SDS011;65471;55.908;37.880;2023-07-30T04:42:35;32.03;;;13.85;;
76589;SDS011;65471;55.908;37.880;2023-07-30T04:45:02;28.35;;;13.10;;
76589;SDS011;65471;55.908;37.880;2023-07-30T04:47:30;13.68;;;11.93;;
76589;SDS011;65471;55.908;37.880;2023-07-30T04:49:57;31.00;;;12.93;;
76589;SDS011;65471;55.908;37.880;2023-07-30T04:52:27;29.15;;;12.95;;
76589;SDS011;65471;55.908;37.880;2023-07-30T04:54:54;22.63;;;12.52;;
76589;SDS011;65471;55.908;37.880;2023-07-30T04:57:21;23.85;;;12.70;;
76589;SDS011;65471;55.908;37.880;2023-07-30T04:59:48;27.02;;;12.70;;
76589;SDS011;65471;55.908;37.880;2023-07-30T05:02:15;29.83;;;12.60;;
76589;SDS011;65471;55.908;37.880;2023-07-30T05:04:42;22.13;;;12.38;;
76589;SDS011;65471;55.908;37.880;2023-07-30T05:07:09;24.25;;;9.25;;
76589;SDS011;65471;55.908;37.880;2023-07-30T05:09:36;22.88;;;10.32;;
76589;SDS011;65471;55.908;37.880;2023-07-30T05:12:03;35.13;;;11.00;;
76589;SDS011;65471;55.908;37.880;2023-07-30T05:14:30;27.63;;;10.63;;
76589;SDS011;65471;55.908;37.880;2023-07-30T05:16:57;23.88;;;9.73;;
76589;SDS011;65471;55.908;37.880;2023-07-30T05:19:24;16.23;;;9.98;;
76589;SDS011;65471;55.908;37.880;2023-07-30T05:21:51;29.77;;;10.27;;
76589;SDS011;65471;55.908;37.880;2023-07-30T05:24:18;13.88;;;8.15;;
76589;SDS011;65471;55.908;37.880;2023-07-30T05:26:44;11.85;;;9.23;;
76589;SDS011;65471;55.908;37.880;2023-07-30T05:29:11;16.25;;;9.38;;
76589;SDS011;65471;55.908;37.880;2023-07-30T05:31:38;10.98;;;6.93;;
76589;SDS011;65471;55.908;37.880;2023-07-30T05:34:06;13.55;;;8.95;;
76589;SDS011;65471;55.908;37.880;2023-07-30T05:36:33;14.52;;;8.35;;
76589;SDS011;65471;55.908;37.880;2023-07-30T05:39:00;29.15;;;8.00;;
76589;SDS011;65471;55.908;37.880;2023-07-30T05:41:26;22.77;;;8.57;;
76589;SDS011;65471;55.908;37.880;2023-07-30T05:43:53;13.25;;;7.95;;
76589;SDS011;65471;55.908;37.880;2023-07-30T05:46:20;10.07;;;7.78;;
76589;SDS011;65471;55.908;37.880;2023-07-30T05:48:47;17.98;;;7.97;;
76589;SDS011;65471;55.908;37.880;2023-07-30T05:51:14;14.25;;;8.32;;
76589;SDS011;65471;55.908;37.880;2023-07-30T05:53:41;13.77;;;7.07;;
76589;SDS011;65471;55.908;37.880;2023-07-30T05:56:09;9.73;;;6.28;;
76589;SDS011;65471;55.908;37.880;2023-07-30T05:58:37;7.05;;;6.32;;
76589;SDS011;65471;55.908;37.880;2023-07-30T06:01:03;14.05;;;7.28;;
76589;SDS011;65471;55.908;37.880;2023-07-30T06:03:30;7.30;;;5.82;;
76589;SDS011;65471;55.908;37.880;2023-07-30T06:05:57;10.23;;;6.90;;
76589;SDS011;65471;55.908;37.880;2023-07-30T06:08:24;12.52;;;6.97;;
76589;SDS011;65471;55.908;37.880;2023-07-30T06:10:51;7.10;;;5.60;;
76589;SDS011;65471;55.908;37.880;2023-07-30T06:13:18;15.15;;;6.45;;
76589;SDS011;65471;55.908;37.880;2023-07-30T06:15:45;14.90;;;7.18;;
76589;SDS011;65471;55.908;37.880;2023-07-30T06:18:12;11.90;;;6.50;;
76589;SDS011;65471;55.908;37.880;2023-07-30T06:20:42;20.10;;;6.60;;
76589;SDS011;65471;55.908;37.880;2023-07-30T06:23:09;9.60;;;5.85;;
76589;SDS011;65471;55.908;37.880;2023-07-30T06:25:36;10.38;;;5.80;;
76589;SDS011;65471;55.908;37.880;2023-07-30T06:28:04;15.27;;;6.10;;
76589;SDS011;65471;55.908;37.880;2023-07-30T06:30:31;12.45;;;6.15;;
76589;SDS011;65471;55.908;37.880;2023-07-30T06:32:59;13.68;;;6.35;;
76589;SDS011;65471;55.908;37.880;2023-07-30T06:35:26;12.65;;;5.25;;
76589;SDS011;65471;55.908;37.880;2023-07-30T06:37:53;10.15;;;6.10;;
76589;SDS011;65471;55.908;37.880;2023-07-30T06:40:20;15.02;;;6.28;;
76589;SDS011;65471;55.908;37.880;2023-07-30T06:42:47;18.77;;;5.95;;
76589;SDS011;65471;55.908;37.880;2023-07-30T06:45:14;7.10;;;5.55;;
76589;SDS011;65471;55.908;37.880;2023-07-30T06:47:41;8.50;;;5.93;;
76589;SDS011;65471;55.908;37.880;2023-07-30T06:50:09;6.80;;;5.32;;
76589;SDS011;65471;55.908;37.880;2023-07-30T06:52:36;11.90;;;5.30;;
76589;SDS011;65471;55.908;37.880;2023-07-30T06:55:03;12.25;;;5.95;;
76589;SDS011;65471;55.908;37.880;2023-07-30T06:57:31;10.85;;;5.30;;
76589;SDS011;65471;55.908;37.880;2023-07-30T06:59:58;14.10;;;5.70;;
76589;SDS011;65471;55.908;37.880;2023-07-30T07:02:33;11.52;;;5.85;;
76589;SDS011;65471;55.908;37.880;2023-07-30T07:05:00;12.75;;;6.10;;
76589;SDS011;65471;55.908;37.880;2023-07-30T07:07:30;8.88;;;5.18;;
76589;SDS011;65471;55.908;37.880;2023-07-30T07:09:57;21.15;;;5.47;;
76589;SDS011;65471;55.908;37.880;2023-07-30T07:12:24;14.00;;;5.10;;
76589;SDS011;65471;55.908;37.880;2023-07-30T07:14:51;14.80;;;5.35;;
76589;SDS011;65471;55.908;37.880;2023-07-30T07:17:18;15.32;;;5.07;;
76589;SDS011;65471;55.908;37.880;2023-07-30T07:19:45;6.32;;;4.90;;
76589;SDS011;65471;55.908;37.880;2023-07-30T07:22:12;12.35;;;5.45;;
76589;SDS011;65471;55.908;37.880;2023-07-30T07:24:39;7.85;;;5.55;;
76589;SDS011;65471;55.908;37.880;2023-07-30T07:27:06;5.68;;;5.10;;
76589;SDS011;65471;55.908;37.880;2023-07-30T07:29:33;8.80;;;5.18;;
76589;SDS011;65471;55.908;37.880;2023-07-30T07:32:00;19.33;;;5.57;;
76589;SDS011;65471;55.908;37.880;2023-07-30T07:34:27;18.05;;;4.88;;
76589;SDS011;65471;55.908;37.880;2023-07-30T07:36:54;10.73;;;4.80;;
76589;SDS011;65471;55.908;37.880;2023-07-30T07:39:21;10.27;;;5.25;;
76589;SDS011;65471;55.908;37.880;2023-07-30T07:41:48;9.32;;;4.88;;
76589;SDS011;65471;55.908;37.880;2023-07-30T07:44:15;10.55;;;4.93;;
76589;SDS011;65471;55.908;37.880;2023-07-30T07:46:42;16.92;;;5.40;;
76589;SDS011;65471;55.908;37.880;2023-07-30T07:49:09;19.08;;;4.97;;
76589;SDS011;65471;55.908;37.880;2023-07-30T07:51:36;7.38;;;4.47;;
76589;SDS011;65471;55.908;37.880;2023-07-30T07:54:03;9.67;;;4.50;;
76589;SDS011;65471;55.908;37.880;2023-07-30T07:56:31;5.90;;;4.68;;
76589;SDS011;65471;55.908;37.880;2023-07-30T07:58:58;4.70;;;4.40;;
76589;SDS011;65471;55.908;37.880;2023-07-30T08:01:25;9.32;;;4.40;;
76589;SDS011;65471;55.908;37.880;2023-07-30T08:03:52;14.50;;;4.03;;
76589;SDS011;65471;55.908;37.880;2023-07-30T08:06:19;11.77;;;4.38;;
76589;SDS011;65471;55.908;37.880;2023-07-30T08:08:45;5.55;;;4.22;;
76589;SDS011;65471;55.908;37.880;2023-07-30T08:11:12;6.35;;;4.00;;
76589;SDS011;65471;55.908;37.880;2023-07-30T08:13:39;11.02;;;4.15;;
76589;SDS011;65471;55.908;37.880;2023-07-30T08:16:06;8.93;;;4.03;;
76589;SDS011;65471;55.908;37.880;2023-07-30T08:18:33;6.60;;;3.95;;
76589;SDS011;65471;55.908;37.880;2023-07-30T08:21:00;11.70;;;4.40;;
76589;SDS011;65471;55.908;37.880;2023-07-30T08:23:27;5.88;;;4.25;;
76589;SDS011;65471;55.908;37.880;2023-07-30T08:25:54;15.05;;;4.10;;
76589;SDS011;65471;55.908;37.880;2023-07-30T08:28:21;13.73;;;4.97;;
76589;SDS011;65471;55.908;37.880;2023-07-30T08:30:48;6.10;;;4.93;;
76589;SDS011;65471;55.908;37.880;2023-07-30T08:33:15;15.23;;;5.28;;
76589;SDS011;65471;55.908;37.880;2023-07-30T08:35:42;18.55;;;6.40;;
76589;SDS011;65471;55.908;37.880;2023-07-30T08:38:09;15.57;;;4.78;;
76589;SDS011;65471;55.908;37.880;2023-07-30T08:40:36;12.40;;;4.40;;
76589;SDS011;65471;55.908;37.880;2023-07-30T08:43:03;9.13;;;3.80;;
76589;SDS011;65471;55.908;37.880;2023-07-30T08:45:31;7.15;;;3.88;;
76589;SDS011;65471;55.908;37.880;2023-07-30T08:47:58;12.45;;;5.00;;
76589;SDS011;65471;55.908;37.880;2023-07-30T08:50:25;6.40;;;4.18;;
76589;SDS011;65471;55.908;37.880;2023-07-30T08:52:53;7.45;;;4.15;;
76589;SDS011;65471;55.908;37.880;2023-07-30T08:55:22;5.05;;;4.22;;
76589;SDS011;65471;55.908;37.880;2023-07-30T08:57:49;8.57;;;4.77;;
76589;SDS011;65471;55.908;37.880;2023-07-30T09:00:18;5.25;;;4.32;;
76589;SDS011;65471;55.908;37.880;2023-07-30T09:02:53;5.95;;;4.57;;
76589;SDS011;65471;55.908;37.880;2023-07-30T09:05:22;10.68;;;4.20;;
76589;SDS011;65471;55.908;37.880;2023-07-30T09:07:49;7.93;;;4.30;;
76589;SDS011;65471;55.908;37.880;2023-07-30T09:10:17;11.30;;;4.05;;
76589;SDS011;65471;55.908;37.880;2023-07-30T09:12:45;19.52;;;4.00;;
76589;SDS011;65471;55.908;37.880;2023-07-30T09:15:14;6.05;;;3.83;;
76589;SDS011;65471;55.908;37.880;2023-07-30T09:17:41;5.28;;;3.95;;
76589;SDS011;65471;55.908;37.880;2023-07-30T09:20:08;5.55;;;4.20;;
76589;SDS011;65471;55.908;37.880;2023-07-30T09:22:36;8.02;;;3.70;;
76589;SDS011;65471;55.908;37.880;2023-07-30T09:25:09;12.07;;;4.20;;
76589;SDS011;65471;55.908;37.880;2023-07-30T09:27:36;15.02;;;4.03;;
76589;SDS011;65471;55.908;37.880;2023-07-30T09:30:03;9.43;;;4.25;;
76589;SDS011;65471;55.908;37.880;2023-07-30T09:32:34;4.32;;;4.03;;
76589;SDS011;65471;55.908;37.880;2023-07-30T09:35:05;7.60;;;4.00;;
76589;SDS011;65471;55.908;37.880;2023-07-30T09:37:36;9.02;;;3.75;;
76589;SDS011;65471;55.908;37.880;2023-07-30T09:40:08;12.55;;;4.10;;
76589;SDS011;65471;55.908;37.880;2023-07-30T09:42:36;14.57;;;4.20;;
76589;SDS011;65471;55.908;37.880;2023-07-30T09:45:06;14.82;;;3.95;;
76589;SDS011;65471;55.908;37.880;2023-07-30T09:47:38;7.57;;;3.42;;
76589;SDS011;65471;55.908;37.880;2023-07-30T09:50:05;6.03;;;3.92;;
76589;SDS011;65471;55.908;37.880;2023-07-30T09:52:33;5.85;;;3.45;;
76589;SDS011;65471;55.908;37.880;2023-07-30T09:55:00;8.13;;;4.05;;
76589;SDS011;65471;55.908;37.880;2023-07-30T09:57:28;4.80;;;3.70;;
76589;SDS011;65471;55.908;37.880;2023-07-30T09:59:55;6.10;;;3.60;;
76589;SDS011;65471;55.908;37.880;2023-07-30T10:02:24;4.82;;;4.25;;
76589;SDS011;65471;55.908;37.880;2023-07-30T10:04:53;15.23;;;4.20;;
76589;SDS011;65471;55.908;37.880;2023-07-30T10:07:24;14.27;;;4.72;;
76589;SDS011;65471;55.908;37.880;2023-07-30T10:09:53;14.38;;;4.18;;
76589;SDS011;65471;55.908;37.880;2023-07-30T10:12:25;5.40;;;4.10;;
76589;SDS011;65471;55.908;37.880;2023-07-30T10:14:57;10.50;;;3.55;;
76589;SDS011;65471;55.908;37.880;2023-07-30T10:17:24;7.10;;;3.72;;
76589;SDS011;65471;55.908;37.880;2023-07-30T10:19:51;18.13;;;3.83;;
76589;SDS011;65471;55.908;37.880;2023-07-30T10:25:05;4.28;;;3.63;;
76589;SDS011;65471;55.908;37.880;2023-07-30T10:27:37;8.80;;;4.40;;
76589;SDS011;65471;55.908;37.880;2023-07-30T10:30:13;4.68;;;4.38;;
76589;SDS011;65471;55.908;37.880;2023-07-30T10:33:03;4.90;;;4.38;;
76589;SDS011;65471;55.908;37.880;2023-07-30T10:35:47;10.65;;;5.72;;
76589;SDS011;65471;55.908;37.880;2023-07-30T10:41:01;17.17;;;4.90;;
76589;SDS011;65471;55.908;37.880;2023-07-30T10:43:36;6.20;;;4.22;;
76589;SDS011;65471;55.908;37.880;2023-07-30T10:46:06;11.57;;;4.35;;
76589;SDS011;65471;55.908;37.880;2023-07-30T10:48:36;10.18;;;4.90;;
76589;SDS011;65471;55.908;37.880;2023-07-30T10:51:05;6.50;;;4.60;;
76589;SDS011;65471;55.908;37.880;2023-07-30T10:53:33;5.10;;;3.78;;
76589;SDS011;65471;55.908;37.880;2023-07-30T10:56:03;8.65;;;3.60;;
76589;SDS011;65471;55.908;37.880;2023-07-30T10:58:31;12.23;;;3.75;;
76589;SDS011;65471;55.908;37.880;2023-07-30T11:01:03;10.07;;;4.15;;
76589;SDS011;65471;55.908;37.880;2023-07-30T11:03:31;4.68;;;3.92;;
76589;SDS011;65471;55.908;37.880;2023-07-30T11:06:00;11.35;;;4.70;;
76589;SDS011;65471;55.908;37.880;2023-07-30T11:08:34;7.78;;;3.65;;
76589;SDS011;65471;55.908;37.880;2023-07-30T11:11:06;10.75;;;3.42;;
76589;SDS011;65471;55.908;37.880;2023-07-30T11:13:45;18.10;;;4.18;;
76589;SDS011;65471;55.908;37.880;2023-07-30T11:16:13;6.45;;;4.57;;
76589;SDS011;65471;55.908;37.880;2023-07-30T11:18:42;5.95;;;4.40;;
76589;SDS011;65471;55.908;37.880;2023-07-30T11:23:39;4.60;;;4.30;;
76589;SDS011;65471;55.908;37.880;2023-07-30T11:26:08;12.35;;;3.78;;
76589;SDS011;65471;55.908;37.880;2023-07-30T11:28:40;6.25;;;3.80;;
76589;SDS011;65471;55.908;37.880;2023-07-30T11:31:08;14.85;;;3.10;;
76589;SDS011;65471;55.908;37.880;2023-07-30T11:33:38;4.85;;;3.40;;
76589;SDS011;65471;55.908;37.880;2023-07-30T11:36:09;4.57;;;3.70;;
76589;SDS011;65471;55.908;37.880;2023-07-30T11:38:38;3.70;;;3.40;;
76589;SDS011;65471;55.908;37.880;2023-07-30T11:41:06;13.45;;;3.70;;
76589;SDS011;65471;55.908;37.880;2023-07-30T11:43:37;7.50;;;3.58;;
76589;SDS011;65471;55.908;37.880;2023-07-30T11:46:10;3.95;;;3.42;;
76589;SDS011;65471;55.908;37.880;2023-07-30T11:48:40;20.77;;;3.65;;
76589;SDS011;65471;55.908;37.880;2023-07-30T11:51:21;7.43;;;3.33;;
76589;SDS011;65471;55.908;37.880;2023-07-30T11:56:25;11.85;;;4.25;;
76589;SDS011;65471;55.908;37.880;2023-07-30T11:58:57;19.30;;;3.80;;
76589;SDS011;65471;55.908;37.880;2023-07-30T12:01:28;3.78;;;3.45;;
76589;SDS011;65471;55.908;37.880;2023-07-30T12:03:57;14.27;;;3.80;;
76589;SDS011;65471;55.908;37.880;2023-07-30T12:06:38;9.52;;;3.40;;
76589;SDS011;65471;55.908;37.880;2023-07-30T12:12:00;4.38;;;3.40;;
76589;SDS011;65471;55.908;37.880;2023-07-30T12:14:28;3.70;;;3.38;;
76589;SDS011;65471;55.908;37.880;2023-07-30T12:17:09;10.23;;;3.35;;
76589;SDS011;65471;55.908;37.880;2023-07-30T12:19:36;6.47;;;3.38;;
76589;SDS011;65471;55.908;37.880;2023-07-30T12:22:03;5.70;;;3.47;;
76589;SDS011;65471;55.908;37.880;2023-07-30T12:24:30;6.93;;;4.15;;
76589;SDS011;65471;55.908;37.880;2023-07-30T12:26:57;14.77;;;10.07;;
76589;SDS011;65471;55.908;37.880;2023-07-30T12:29:24;25.23;;;15.35;;
76589;SDS011;65471;55.908;37.880;2023-07-30T12:31:52;27.95;;;14.60;;
76589;SDS011;65471;55.908;37.880;2023-07-30T12:34:20;40.80;;;21.95;;
76589;SDS011;65471;55.908;37.880;2023-07-30T12:36:47;41.33;;;20.98;;
76589;SDS011;65471;55.908;37.880;2023-07-30T12:39:14;28.02;;;15.75;;
76589;SDS011;65471;55.908;37.880;2023-07-30T12:41:41;27.17;;;14.55;;
76589;SDS011;65471;55.908;37.880;2023-07-30T12:44:09;28.70;;;14.63;;
76589;SDS011;65471;55.908;37.880;2023-07-30T12:46:36;25.33;;;13.93;;
76589;SDS011;65471;55.908;37.880;2023-07-30T12:49:03;29.60;;;11.40;;
76589;SDS011;65471;55.908;37.880;2023-07-30T12:51:32;21.65;;;8.63;;
76589;SDS011;65471;55.908;37.880;2023-07-30T12:53:59;13.60;;;7.68;;
76589;SDS011;65471;55.908;37.880;2023-07-30T12:56:26;20.00;;;7.80;;
76589;SDS011;65471;55.908;37.880;2023-07-30T12:58:53;25.83;;;10.98;;
76589;SDS011;65471;55.908;37.880;2023-07-30T13:01:20;34.75;;;14.73;;
76589;SDS011;65471;55.908;37.880;2023-07-30T13:03:48;43.67;;;15.25;;
76589;SDS011;65471;55.908;37.880;2023-07-30T13:06:16;33.88;;;13.55;;
76589;SDS011;65471;55.908;37.880;2023-07-30T13:08:43;35.63;;;12.82;;
76589;SDS011;65471;55.908;37.880;2023-07-30T13:11:10;25.15;;;11.27;;
76589;SDS011;65471;55.908;37.880;2023-07-30T13:13:37;18.10;;;8.65;;
76589;SDS011;65471;55.908;37.880;2023-07-30T13:16:04;21.15;;;6.88;;
76589;SDS011;65471;55.908;37.880;2023-07-30T13:18:31;13.95;;;6.22;;
76589;SDS011;65471;55.908;37.880;2023-07-30T13:20:58;10.02;;;5.22;;
76589;SDS011;65471;55.908;37.880;2023-07-30T13:23:25;13.80;;;4.55;;
76589;SDS011;65471;55.908;37.880;2023-07-30T13:25:52;15.80;;;4.38;;
76589;SDS011;65471;55.908;37.880;2023-07-30T13:28:37;26.40;;;6.35;;
76589;SDS011;65471;55.908;37.880;2023-07-30T13:31:04;102.90;;;8.65;;
76589;SDS011;65471;55.908;37.880;2023-07-30T13:33:31;76.55;;;7.03;;
76589;SDS011;65471;55.908;37.880;2023-07-30T13:35:57;37.28;;;5.25;;
76589;SDS011;65471;55.908;37.880;2023-07-30T13:38:25;4.45;;;3.80;;
76589;SDS011;65471;55.908;37.880;2023-07-30T13:40:53;14.98;;;4.40;;
76589;SDS011;65471;55.908;37.880;2023-07-30T13:43:20;18.92;;;4.65;;
76589;SDS011;65471;55.908;37.880;2023-07-30T13:45:47;5.55;;;3.70;;
76589;SDS011;65471;55.908;37.880;2023-07-30T13:48:16;7.68;;;4.55;;
76589;SDS011;65471;55.908;37.880;2023-07-30T13:50:44;16.67;;;4.25;;
76589;SDS011;65471;55.908;37.880;2023-07-30T13:53:10;4.68;;;4.28;;
76589;SDS011;65471;55.908;37.880;2023-07-30T13:55:39;8.63;;;5.28;;
76589;SDS011;65471;55.908;37.880;2023-07-30T13:58:06;13.80;;;6.15;;
76589;SDS011;65471;55.908;37.880;2023-07-30T14:00:33;8.23;;;5.43;;
76589;SDS011;65471;55.908;37.880;2023-07-30T14:03:00;12.35;;;5.93;;
76589;SDS011;65471;55.908;37.880;2023-07-30T14:05:27;9.10;;;5.13;;
76589;SDS011;65471;55.908;37.880;2023-07-30T14:07:55;19.40;;;5.95;;
76589;SDS011;65471;55.908;37.880;2023-07-30T14:10:23;10.18;;;4.80;;
76589;SDS011;65471;55.908;37.880;2023-07-30T14:12:50;9.93;;;4.32;;
76589;SDS011;65471;55.908;37.880;2023-07-30T14:15:17;12.60;;;5.40;;
76589;SDS011;65471;55.908;37.880;2023-07-30T14:17:45;8.10;;;6.55;;
76589;SDS011;65471;55.908;37.880;2023-07-30T14:20:12;13.48;;;8.55;;
76589;SDS011;65471;55.908;37.880;2023-07-30T14:22:38;19.50;;;8.20;;
76589;SDS011;65471;55.908;37.880;2023-07-30T14:25:06;12.32;;;6.65;;
76589;SDS011;65471;55.908;37.880;2023-07-30T14:27:33;12.88;;;6.53;;
76589;SDS011;65471;55.908;37.880;2023-07-30T14:30:00;8.40;;;5.65;;
76589;SDS011;65471;55.908;37.880;2023-07-30T14:32:30;13.23;;;5.03;;
76589;SDS011;65471;55.908;37.880;2023-07-30T14:34:57;12.88;;;5.30;;
76589;SDS011;65471;55.908;37.880;2023-07-30T14:37:24;9.45;;;5.97;;